Startpagina
METAR-TAF:

METAR-TAF

Vliegvelden :

Arauca, Colombia

breedte: 07-04N, lengte: 070-44W, hoogte: 128 m

Actueel weer

Dit bericht is 1 uur en het 1 minuten geleden gemaakt, om 13:00 UTC
Weinig wind
Temperatuur 25°C
Vochtigheid 100%
Druk 1015 hPa
Zicht 10 km of meer
Gebroken wolken op 1500 ft

METAR: SKUC 231300Z 00000KT 9999 BKN015 25/25 A2998

Tijdstip: 09:01 (14:01 UTC)


TAF: ontbreekt

Waarnemingen en weersverwachtingen van meer dan 4000 vliegvelden (METAR en TAF).

De beschikbare stations zijn de gele en rode punten op de kaart.

Ga met uw muis naar het station om de naam te zien.

Klik dan om waarnemingen en weersverwachtingen te zien.

kaart wijzigen: klik op de groene knoppen met een zwart kruis om in te zoomen, op de groene knop met een streepje om uit te zoomen of op de groene pijlen voor aangrenzende kaarten.


METAR-TAF: